createdAt,value
2024-02-26T00:01:22.108Z,8.88
2024-02-26T00:03:50.521Z,8.10
2024-02-26T00:06:19.430Z,8.35
2024-02-26T00:08:47.998Z,8.38
2024-02-26T00:11:16.613Z,10.60
2024-02-26T00:13:46.312Z,8.23
2024-02-26T00:16:14.658Z,10.17
2024-02-26T00:18:43.091Z,10.80
2024-02-26T00:21:11.437Z,10.95
2024-02-26T00:23:39.829Z,13.85
2024-02-26T00:26:08.876Z,8.73
2024-02-26T00:28:37.240Z,7.78
2024-02-26T00:31:07.130Z,8.77
2024-02-26T00:33:34.754Z,8.68
2024-02-26T00:36:03.261Z,9.55
2024-02-26T00:38:31.667Z,8.48
2024-02-26T00:41:00.061Z,8.07
2024-02-26T00:43:28.460Z,11.85
2024-02-26T00:45:56.809Z,8.25
2024-02-26T00:48:27.779Z,7.72
2024-02-26T00:50:56.968Z,8.45
2024-02-26T00:53:26.059Z,8.02
2024-02-26T00:55:54.503Z,8.90
2024-02-26T00:58:22.913Z,7.95
2024-02-26T01:00:51.375Z,7.82
2024-02-26T01:03:20.420Z,7.45
2024-02-26T01:05:50.587Z,9.05
2024-02-26T01:08:19.045Z,7.88
2024-02-26T01:10:47.437Z,9.43
2024-02-26T01:13:16.035Z,8.65
2024-02-26T01:15:44.986Z,8.82
2024-02-26T01:18:14.631Z,8.80
2024-02-26T01:20:43.327Z,8.43
2024-02-26T01:23:14.504Z,8.80
2024-02-26T01:25:44.286Z,10.20
2024-02-26T01:28:12.679Z,8.00
2024-02-26T01:30:40.996Z,8.88
2024-02-26T01:33:09.896Z,8.43
2024-02-26T01:35:38.435Z,9.18
2024-02-26T01:38:06.971Z,7.72
2024-02-26T01:40:37.566Z,8.98
2024-02-26T01:45:34.589Z,12.60
2024-02-26T01:48:04.300Z,8.85
2024-02-26T01:50:32.906Z,9.85
2024-02-26T01:53:01.355Z,9.40
2024-02-26T01:55:29.887Z,9.63
2024-02-26T01:58:00.158Z,8.45
2024-02-26T02:00:29.122Z,8.80
2024-02-26T02:02:57.752Z,11.88
2024-02-26T02:05:27.172Z,10.95
2024-02-26T02:07:56.574Z,9.32
2024-02-26T02:10:26.823Z,11.00
2024-02-26T02:12:55.455Z,9.73
2024-02-26T02:15:25.587Z,12.85
2024-02-26T02:17:54.147Z,12.07
2024-02-26T02:20:28.540Z,11.45
2024-02-26T02:22:56.948Z,10.93
2024-02-26T02:25:25.400Z,10.10
2024-02-26T02:27:55.837Z,10.60
2024-02-26T02:30:27.473Z,10.50
2024-02-26T02:32:56.369Z,10.77
2024-02-26T02:35:24.741Z,11.02
2024-02-26T02:37:55.391Z,12.73
2024-02-26T02:42:52.042Z,11.25
2024-02-26T02:45:20.444Z,11.77
2024-02-26T02:47:49.040Z,12.20
2024-02-26T02:50:17.584Z,13.02
2024-02-26T02:52:45.995Z,12.98
2024-02-26T02:55:16.203Z,12.27
2024-02-26T02:57:45.784Z,11.27
2024-02-26T03:00:15.362Z,11.95
2024-02-26T03:02:43.998Z,11.70
2024-02-26T03:05:11.706Z,14.05
2024-02-26T03:07:40.097Z,14.07
2024-02-26T03:10:09.769Z,14.00
2024-02-26T03:12:39.584Z,12.70
2024-02-26T03:15:09.217Z,13.02
2024-02-26T03:17:37.693Z,12.13
2024-02-26T03:20:10.703Z,13.10
2024-02-26T03:22:41.369Z,13.27
2024-02-26T03:27:40.125Z,13.60
2024-02-26T03:30:10.099Z,11.50
2024-02-26T03:32:38.659Z,12.27
2024-02-26T03:35:08.577Z,11.88
2024-02-26T03:37:36.973Z,14.98
2024-02-26T03:40:07.115Z,12.70
2024-02-26T03:42:34.465Z,13.90
2024-02-26T03:45:04.567Z,12.63
2024-02-26T03:47:32.993Z,13.02
2024-02-26T03:50:01.626Z,14.50
2024-02-26T03:52:29.132Z,12.98
2024-02-26T03:54:57.527Z,13.63
2024-02-26T03:57:25.934Z,12.57
2024-02-26T03:59:54.860Z,15.60
2024-02-26T04:02:25.053Z,12.18
2024-02-26T04:04:53.834Z,12.70
2024-02-26T04:07:22.354Z,12.90
2024-02-26T04:09:50.785Z,13.80
2024-02-26T04:12:19.868Z,12.73
2024-02-26T04:14:48.317Z,13.27
2024-02-26T04:17:16.653Z,14.93
2024-02-26T04:19:46.505Z,15.70
2024-02-26T04:22:14.991Z,16.60
2024-02-26T04:24:43.604Z,15.73
2024-02-26T04:27:11.921Z,16.17
2024-02-26T04:29:40.392Z,15.27
2024-02-26T04:32:08.999Z,15.73
2024-02-26T04:34:38.018Z,15.23
2024-02-26T04:37:07.844Z,15.13
2024-02-26T04:39:36.515Z,15.30
2024-02-26T04:42:05.765Z,17.10
2024-02-26T04:44:34.108Z,17.23
2024-02-26T04:47:02.896Z,17.35
2024-02-26T04:49:31.525Z,17.95
2024-02-26T04:51:58.945Z,17.83
2024-02-26T04:54:28.749Z,15.75
2024-02-26T04:56:57.136Z,16.85
2024-02-26T04:59:25.557Z,17.50
2024-02-26T05:01:54.154Z,16.40
2024-02-26T05:04:22.697Z,18.05
2024-02-26T05:06:51.284Z,15.07
2024-02-26T05:09:19.788Z,16.98
2024-02-26T05:11:49.549Z,15.90
2024-02-26T05:14:17.945Z,16.88
2024-02-26T05:16:46.339Z,16.98
2024-02-26T05:19:15.224Z,17.08
2024-02-26T05:21:45.230Z,16.13
2024-02-26T05:24:13.661Z,16.83
2024-02-26T05:26:42.202Z,15.77
2024-02-26T05:29:12.590Z,17.83
2024-02-26T05:31:40.951Z,17.00
2024-02-26T05:34:09.315Z,18.05
2024-02-26T05:36:37.716Z,17.40
2024-02-26T05:39:06.085Z,16.77
2024-02-26T05:41:34.807Z,19.85
2024-02-26T05:44:03.225Z,18.40
2024-02-26T05:46:32.913Z,16.88
2024-02-26T05:49:01.463Z,18.10
2024-02-26T05:51:29.892Z,19.77
2024-02-26T05:53:59.143Z,17.70
2024-02-26T05:56:27.542Z,18.55
2024-02-26T05:58:55.923Z,18.30
2024-02-26T06:01:25.469Z,19.95
2024-02-26T06:03:55.246Z,20.23
2024-02-26T06:06:24.803Z,17.08
2024-02-26T06:08:53.797Z,19.85
2024-02-26T06:11:23.958Z,18.23
2024-02-26T06:13:52.398Z,19.15
2024-02-26T06:16:20.767Z,19.95
2024-02-26T06:18:49.425Z,19.55
2024-02-26T06:21:19.128Z,22.08
2024-02-26T06:23:47.514Z,20.00
2024-02-26T06:26:15.900Z,19.70
2024-02-26T06:28:44.250Z,21.67
2024-02-26T06:31:12.558Z,21.80
2024-02-26T06:33:41.050Z,22.52
2024-02-26T06:36:09.902Z,24.00
2024-02-26T06:38:39.652Z,24.52
2024-02-26T06:41:08.000Z,23.50
2024-02-26T06:43:36.402Z,26.90
2024-02-26T06:46:05.164Z,26.92
2024-02-26T06:48:33.573Z,30.10
2024-02-26T06:51:02.096Z,28.98
2024-02-26T06:53:30.491Z,28.40
2024-02-26T06:56:00.213Z,26.90
2024-02-26T06:58:28.696Z,26.20
2024-02-26T07:00:57.113Z,27.52
2024-02-26T07:03:26.781Z,30.02
2024-02-26T07:05:55.410Z,28.10
2024-02-26T07:08:23.801Z,31.02
2024-02-26T07:10:52.167Z,28.92
2024-02-26T07:13:22.110Z,32.35
2024-02-26T07:15:50.444Z,30.27
2024-02-26T07:18:18.953Z,36.80
2024-02-26T07:20:47.465Z,32.97
2024-02-26T07:23:15.833Z,32.70
2024-02-26T07:25:48.380Z,29.67
2024-02-26T07:28:17.141Z,32.42
2024-02-26T07:30:47.114Z,31.73
2024-02-26T07:33:15.950Z,30.88
2024-02-26T07:35:44.394Z,31.55
2024-02-26T07:38:22.933Z,30.48
2024-02-26T07:41:03.398Z,31.35
2024-02-26T07:43:32.409Z,27.38
2024-02-26T07:46:02.141Z,29.73
2024-02-26T07:48:31.190Z,28.98
2024-02-26T07:51:01.227Z,28.85
2024-02-26T07:53:29.684Z,28.67
2024-02-26T07:55:57.988Z,25.30
2024-02-26T07:58:26.546Z,25.63
2024-02-26T08:00:55.185Z,26.00
2024-02-26T08:03:24.974Z,24.80
2024-02-26T08:05:54.172Z,24.63
2024-02-26T08:08:22.640Z,25.58
2024-02-26T08:10:51.136Z,23.75
2024-02-26T08:13:19.479Z,21.15
2024-02-26T08:15:47.784Z,22.10
2024-02-26T08:18:17.253Z,19.98
2024-02-26T08:20:47.375Z,19.43
2024-02-26T08:23:20.491Z,21.40
2024-02-26T08:25:51.318Z,19.63
2024-02-26T08:30:48.105Z,17.17
2024-02-26T08:33:16.765Z,20.73
2024-02-26T08:35:46.763Z,18.10
2024-02-26T08:38:15.159Z,17.15
2024-02-26T08:40:44.612Z,17.83
2024-02-26T08:43:12.978Z,18.30
2024-02-26T08:45:41.444Z,16.38
2024-02-26T08:48:10.302Z,16.15
2024-02-26T08:50:38.688Z,14.43
2024-02-26T08:53:08.677Z,14.77
2024-02-26T08:55:37.027Z,16.55
2024-02-26T08:58:05.786Z,14.35
2024-02-26T09:00:34.301Z,14.32
2024-02-26T09:03:05.636Z,12.30
2024-02-26T09:05:34.483Z,14.27
2024-02-26T09:08:02.972Z,15.30
2024-02-26T09:10:34.038Z,12.65
2024-02-26T09:13:02.771Z,14.35
2024-02-26T09:15:31.337Z,13.63
2024-02-26T09:18:00.635Z,12.80
2024-02-26T09:20:29.236Z,12.40
2024-02-26T09:22:57.595Z,14.52
2024-02-26T09:25:25.946Z,14.60
2024-02-26T09:27:55.661Z,13.18
2024-02-26T09:30:24.406Z,11.43
2024-02-26T09:32:52.920Z,11.90
2024-02-26T09:35:22.463Z,12.55
2024-02-26T09:37:51.642Z,11.67
2024-02-26T09:40:20.067Z,11.85
2024-02-26T09:42:48.557Z,12.63
2024-02-26T09:45:24.334Z,11.32
2024-02-26T09:47:53.137Z,11.02
2024-02-26T09:50:24.682Z,12.45
2024-02-26T09:52:55.000Z,12.32
2024-02-26T09:55:23.428Z,11.23
2024-02-26T09:57:54.616Z,11.82
2024-02-26T10:00:29.963Z,10.77
2024-02-26T10:03:00.439Z,12.15
2024-02-26T10:05:29.570Z,11.63
2024-02-26T10:08:02.250Z,12.32
2024-02-26T10:10:32.696Z,12.68
2024-02-26T10:13:02.731Z,12.70
2024-02-26T10:15:32.684Z,11.50
2024-02-26T10:18:01.357Z,11.90
2024-02-26T10:20:30.024Z,11.48
2024-02-26T10:22:58.518Z,12.10
2024-02-26T10:25:26.909Z,12.18
2024-02-26T10:27:56.812Z,12.88
2024-02-26T10:30:27.417Z,11.40
2024-02-26T10:32:58.165Z,12.38
2024-02-26T10:35:27.340Z,11.82
2024-02-26T10:37:56.042Z,14.07
2024-02-26T10:40:24.363Z,13.98
2024-02-26T10:42:52.898Z,13.38
2024-02-26T10:45:21.951Z,11.50
2024-02-26T10:47:50.508Z,11.90
2024-02-26T10:50:20.422Z,12.73
2024-02-26T10:52:48.791Z,10.98
2024-02-26T10:55:20.801Z,12.65
2024-02-26T10:57:52.793Z,13.57
2024-02-26T11:00:21.529Z,11.85
2024-02-26T11:02:50.692Z,13.07
2024-02-26T11:05:21.057Z,12.02
2024-02-26T11:07:50.011Z,11.73
2024-02-26T11:10:19.287Z,11.45
2024-02-26T11:12:48.624Z,11.63
2024-02-26T11:15:17.774Z,12.52
2024-02-26T11:17:48.681Z,11.00
2024-02-26T11:20:19.994Z,10.10
2024-02-26T11:22:48.585Z,11.32
2024-02-26T11:25:18.106Z,12.90
2024-02-26T11:27:51.657Z,10.15
2024-02-26T11:30:21.859Z,12.30
2024-02-26T11:32:52.085Z,11.68
2024-02-26T11:35:22.694Z,11.70
2024-02-26T11:37:59.210Z,11.57
2024-02-26T11:40:28.346Z,12.50
2024-02-26T11:42:57.147Z,11.60
2024-02-26T11:45:53.232Z,13.82
2024-02-26T11:48:27.354Z,14.63
2024-02-26T11:50:59.915Z,13.60
2024-02-26T11:53:32.230Z,11.02
2024-02-26T11:56:24.854Z,11.15
2024-02-26T11:59:01.337Z,13.65
2024-02-26T12:01:48.713Z,14.85
2024-02-26T12:04:21.274Z,13.35
2024-02-26T12:06:54.823Z,11.00
2024-02-26T12:09:37.445Z,14.18
2024-02-26T12:12:08.581Z,10.23
2024-02-26T12:14:40.257Z,11.48
2024-02-26T12:17:10.365Z,9.10
2024-02-26T12:19:42.957Z,11.10
2024-02-26T12:22:17.274Z,16.08
2024-02-26T12:24:45.837Z,11.00
2024-02-26T12:27:14.462Z,11.20
2024-02-26T12:29:42.997Z,11.13
2024-02-26T12:32:12.032Z,9.57
2024-02-26T12:34:40.626Z,9.63
2024-02-26T12:37:10.402Z,8.80
2024-02-26T12:39:41.702Z,8.93
2024-02-26T12:42:10.281Z,9.43
2024-02-26T12:44:40.024Z,9.00
2024-02-26T12:47:08.629Z,10.88
2024-02-26T12:49:37.266Z,10.13
2024-02-26T12:52:07.623Z,8.40
2024-02-26T12:54:39.969Z,8.75
2024-02-26T12:57:11.174Z,11.48
2024-02-26T12:59:40.155Z,9.75
2024-02-26T13:02:09.013Z,9.63
2024-02-26T13:04:37.969Z,9.50
2024-02-26T13:07:07.029Z,10.98
2024-02-26T13:09:36.813Z,8.23
2024-02-26T13:12:09.762Z,10.10
2024-02-26T13:14:38.297Z,10.55
2024-02-26T13:17:07.303Z,10.18
2024-02-26T13:19:36.474Z,9.35
2024-02-26T13:22:09.058Z,7.75
2024-02-26T13:24:38.687Z,9.15
2024-02-26T13:27:08.308Z,7.47
2024-02-26T13:29:38.290Z,9.93
2024-02-26T13:32:08.361Z,9.90
2024-02-26T13:34:37.930Z,8.05
2024-02-26T13:37:06.937Z,10.07
2024-02-26T13:39:37.393Z,9.95
2024-02-26T13:42:09.017Z,8.25
2024-02-26T13:44:40.752Z,8.90
2024-02-26T13:47:09.208Z,8.68
2024-02-26T13:49:37.672Z,10.68
2024-02-26T13:52:06.665Z,9.20
2024-02-26T13:54:35.544Z,8.85
2024-02-26T13:57:04.278Z,8.20
2024-02-26T13:59:35.518Z,8.80
2024-02-26T14:02:05.726Z,8.35
2024-02-26T14:04:34.279Z,8.65
2024-02-26T14:07:03.205Z,9.85
2024-02-26T14:09:43.464Z,8.68
2024-02-26T14:12:15.039Z,8.30
2024-02-26T14:14:43.784Z,9.48
2024-02-26T14:17:13.898Z,8.65
2024-02-26T14:19:45.497Z,10.15
2024-02-26T14:22:14.281Z,7.70
2024-02-26T14:24:42.972Z,9.13
2024-02-26T14:27:15.615Z,7.65
2024-02-26T14:29:44.324Z,8.63
2024-02-26T14:32:14.345Z,9.60
2024-02-26T14:34:43.142Z,8.45
2024-02-26T14:37:11.593Z,6.72
2024-02-26T14:39:40.941Z,11.40
2024-02-26T14:42:09.549Z,9.00
2024-02-26T14:44:38.124Z,10.00
2024-02-26T14:47:06.931Z,8.15
2024-02-26T14:49:36.921Z,9.13
2024-02-26T14:52:06.212Z,9.23
2024-02-26T14:54:38.691Z,7.93
2024-02-26T14:57:07.983Z,8.43
2024-02-26T14:59:37.791Z,8.75
2024-02-26T15:02:06.448Z,8.77
2024-02-26T15:04:36.845Z,9.63
2024-02-26T15:07:06.229Z,8.80
2024-02-26T15:09:36.700Z,10.38
2024-02-26T15:12:07.865Z,11.82
2024-02-26T15:14:37.054Z,9.60
2024-02-26T15:17:05.968Z,11.73
2024-02-26T15:19:34.409Z,10.90
2024-02-26T15:22:04.919Z,8.98
2024-02-26T15:24:33.442Z,8.73
2024-02-26T15:27:01.947Z,10.45
2024-02-26T15:29:30.487Z,13.55
2024-02-26T15:31:58.912Z,11.30
2024-02-26T15:34:27.447Z,10.95
2024-02-26T15:36:55.934Z,11.48
2024-02-26T15:39:25.657Z,11.35
2024-02-26T15:41:54.226Z,9.73
2024-02-26T15:44:22.646Z,12.50
2024-02-26T15:46:51.249Z,13.52
2024-02-26T15:49:21.039Z,11.48
2024-02-26T15:51:49.693Z,10.57
2024-02-26T15:54:18.157Z,11.07
2024-02-26T15:56:50.020Z,9.18
2024-02-26T15:59:20.641Z,10.55
2024-02-26T16:04:18.823Z,10.40
2024-02-26T16:06:51.284Z,10.98
2024-02-26T16:09:19.918Z,10.77
2024-02-26T16:11:49.663Z,11.30
2024-02-26T16:14:28.729Z,12.10
2024-02-26T16:17:03.472Z,12.48
2024-02-26T16:19:32.288Z,11.85
2024-02-26T16:22:00.705Z,12.13
2024-02-26T16:24:29.138Z,12.60
2024-02-26T16:26:58.897Z,8.88
2024-02-26T16:29:27.322Z,12.60
2024-02-26T16:31:55.745Z,9.20
2024-02-26T16:34:24.190Z,10.60
2024-02-26T16:36:52.961Z,12.00
2024-02-26T16:39:21.667Z,13.85
2024-02-26T16:41:50.389Z,13.20
2024-02-26T16:44:20.100Z,13.93
2024-02-26T16:46:48.488Z,10.10
2024-02-26T16:49:17.115Z,18.05
2024-02-26T16:51:45.549Z,15.05
2024-02-26T16:54:13.997Z,12.38
2024-02-26T16:56:42.703Z,12.75
2024-02-26T16:59:11.102Z,11.60
2024-02-26T17:01:41.212Z,11.38
2024-02-26T17:04:10.214Z,9.38
2024-02-26T17:06:38.695Z,12.88
2024-02-26T17:09:09.049Z,9.60
2024-02-26T17:11:39.566Z,10.18
2024-02-26T17:14:08.457Z,10.63
2024-02-26T17:16:37.451Z,13.43
2024-02-26T17:19:07.554Z,16.65
2024-02-26T17:21:36.091Z,14.98
2024-02-26T17:24:04.612Z,11.02
2024-02-26T17:26:32.995Z,10.50
2024-02-26T17:29:02.418Z,9.57
2024-02-26T17:31:31.234Z,11.77
2024-02-26T17:34:00.278Z,9.90
2024-02-26T17:36:30.232Z,12.13
2024-02-26T17:38:58.661Z,11.77
2024-02-26T17:41:27.125Z,11.27
2024-02-26T17:43:55.939Z,9.95
2024-02-26T17:46:24.348Z,10.52
2024-02-26T17:48:52.866Z,12.57
2024-02-26T17:51:21.330Z,9.15
2024-02-26T17:53:51.202Z,9.10
2024-02-26T17:56:19.591Z,10.35
2024-02-26T17:58:47.913Z,12.35
2024-02-26T18:01:16.389Z,15.95
2024-02-26T18:03:45.037Z,11.77
2024-02-26T18:06:13.863Z,10.05
2024-02-26T18:08:42.319Z,10.18
2024-02-26T18:11:13.893Z,10.50
2024-02-26T18:13:45.881Z,14.38
2024-02-26T18:16:14.750Z,13.82
2024-02-26T18:18:47.557Z,11.07
2024-02-26T18:21:17.799Z,8.68
2024-02-26T18:23:46.370Z,11.18
2024-02-26T18:26:20.439Z,9.88
2024-02-26T18:28:49.432Z,12.18
2024-02-26T18:31:18.029Z,8.40
2024-02-26T18:33:46.669Z,10.25
2024-02-26T18:36:17.243Z,11.95
2024-02-26T18:41:22.289Z,10.35
2024-02-26T18:43:51.943Z,9.25
2024-02-26T18:46:20.631Z,9.70
2024-02-26T18:48:49.635Z,6.32
2024-02-26T18:51:18.337Z,9.30
2024-02-26T18:53:46.889Z,8.00
2024-02-26T18:56:15.927Z,8.70
2024-02-26T18:58:45.936Z,6.32
2024-02-26T19:01:14.447Z,9.10
2024-02-26T19:03:43.256Z,8.05
2024-02-26T19:06:11.875Z,6.60
2024-02-26T19:08:40.811Z,10.13
2024-02-26T19:11:09.640Z,10.75
2024-02-26T19:13:39.849Z,10.45
2024-02-26T19:16:09.747Z,13.75
2024-02-26T19:18:38.661Z,7.68
2024-02-26T19:21:07.652Z,10.63
2024-02-26T19:23:36.746Z,8.38
2024-02-26T19:26:05.759Z,11.23
2024-02-26T19:28:34.257Z,7.63
2024-02-26T19:31:02.884Z,8.25
2024-02-26T19:33:33.325Z,7.50
2024-02-26T19:36:01.798Z,6.97
2024-02-26T19:38:30.175Z,7.45
2024-02-26T19:40:58.732Z,6.80
2024-02-26T19:43:27.212Z,9.35
2024-02-26T19:45:56.694Z,8.48
2024-02-26T19:48:25.245Z,12.30
2024-02-26T19:50:56.871Z,8.90
2024-02-26T19:53:25.561Z,6.72
2024-02-26T19:55:54.024Z,6.53
2024-02-26T19:58:22.351Z,10.55
2024-02-26T20:00:51.018Z,8.52
2024-02-26T20:03:20.361Z,6.63
2024-02-26T20:05:48.838Z,8.45
2024-02-26T20:08:19.282Z,6.13
2024-02-26T20:10:51.382Z,9.98
2024-02-26T20:13:23.268Z,11.35
2024-02-26T20:15:51.713Z,9.45
2024-02-26T20:18:20.176Z,7.70
2024-02-26T20:20:48.557Z,8.38
2024-02-26T20:23:18.713Z,10.55
2024-02-26T20:25:47.113Z,8.65
2024-02-26T20:28:15.894Z,10.88
2024-02-26T20:30:44.323Z,7.20
2024-02-26T20:33:12.916Z,8.32
2024-02-26T20:35:41.299Z,5.85
2024-02-26T20:38:09.996Z,7.55
2024-02-26T20:40:39.722Z,6.68
2024-02-26T20:43:08.067Z,8.93
2024-02-26T20:45:36.488Z,10.25
2024-02-26T20:48:06.082Z,10.55
2024-02-26T20:50:34.558Z,9.10
2024-02-26T20:53:02.979Z,6.65
2024-02-26T20:55:31.372Z,11.02
2024-02-26T20:58:01.126Z,8.95
2024-02-26T21:00:29.587Z,7.05
2024-02-26T21:02:58.261Z,7.90
2024-02-26T21:05:26.838Z,8.68
2024-02-26T21:07:55.358Z,8.73
2024-02-26T21:10:26.611Z,10.38
2024-02-26T21:12:55.114Z,7.63
2024-02-26T21:15:25.282Z,7.10
2024-02-26T21:17:53.932Z,10.02
2024-02-26T21:20:24.678Z,9.75
2024-02-26T21:25:21.907Z,6.78
2024-02-26T21:27:50.275Z,6.95
2024-02-26T21:30:18.719Z,9.30
2024-02-26T21:32:48.584Z,8.20
2024-02-26T21:35:17.355Z,10.02
2024-02-26T21:37:46.413Z,10.10
2024-02-26T21:40:15.253Z,9.60
2024-02-26T21:42:43.808Z,10.85
2024-02-26T21:45:12.794Z,6.25
2024-02-26T21:47:41.215Z,10.70
2024-02-26T21:50:12.313Z,8.38
2024-02-26T21:52:40.895Z,7.20
2024-02-26T21:55:12.504Z,8.23
2024-02-26T21:57:41.063Z,9.32
2024-02-26T22:00:10.964Z,6.07
2024-02-26T22:02:42.863Z,6.57
2024-02-26T22:05:12.962Z,8.73
2024-02-26T22:07:44.213Z,7.72
2024-02-26T22:10:12.950Z,6.80
2024-02-26T22:12:41.491Z,8.15
2024-02-26T22:15:12.293Z,11.43
2024-02-26T22:17:42.400Z,5.95
2024-02-26T22:20:13.941Z,7.65
2024-02-26T22:22:42.873Z,6.13
2024-02-26T22:25:11.489Z,8.77
2024-02-26T22:27:40.059Z,9.85
2024-02-26T22:30:10.412Z,7.32
2024-02-26T22:32:38.874Z,7.30
2024-02-26T22:35:08.035Z,9.88
2024-02-26T22:37:39.282Z,7.80
2024-02-26T22:40:10.570Z,9.55
2024-02-26T22:42:39.448Z,7.80
2024-02-26T22:45:09.155Z,7.47
2024-02-26T22:47:37.953Z,6.73
2024-02-26T22:50:07.992Z,8.40
2024-02-26T22:52:37.913Z,9.90
2024-02-26T22:55:07.716Z,6.82
2024-02-26T22:57:36.101Z,7.57
2024-02-26T23:00:26.225Z,6.88
2024-02-26T23:02:55.031Z,8.77
2024-02-26T23:05:26.415Z,6.53
2024-02-26T23:07:57.596Z,6.80
2024-02-26T23:10:26.689Z,6.97
2024-02-26T23:12:55.203Z,6.97
2024-02-26T23:15:24.272Z,10.38
2024-02-26T23:17:55.435Z,7.78
2024-02-26T23:20:25.083Z,6.47
2024-02-26T23:22:55.296Z,8.43
2024-02-26T23:25:23.884Z,9.18
2024-02-26T23:27:52.274Z,7.75
2024-02-26T23:30:20.885Z,7.78
2024-02-26T23:32:49.609Z,7.18
2024-02-26T23:35:18.302Z,10.98
2024-02-26T23:37:46.746Z,8.20
2024-02-26T23:40:17.037Z,8.05
2024-02-26T23:42:45.944Z,9.05
2024-02-26T23:45:14.726Z,10.13
2024-02-26T23:47:43.144Z,7.40
2024-02-26T23:50:12.356Z,9.38
2024-02-26T23:52:40.945Z,10.85
2024-02-26T23:55:09.769Z,9.30
2024-02-26T23:57:39.544Z,8.88
